Nearby METAR Reports

 

EGNX - East Midlands, United Kingdom
Distance from station: W 5mi, 8km
Updated: 24/05/2022 17:20
Partly cloudy
Partly cloudy
 Wind from WNW
Wind: WNW 16 mph , 26 km/h
Temperature: 13°C
Dew Point: 5°C
Humidity: 59%
Barometer: 1007 hPa
Clouds: Partly cloudy
Visibility: 6 miles , 10 km
Cloud details: Partly cloudy 1219 m
2022/05/24 16:20 EGNX 241620Z 30014KT 9999 SCT040 13/05 Q1007
EGBB - Birmingham Airpo, United Kingdom
Distance from station: SW 34mi, 55km
Updated: 24/05/2022 17:20
Mostly cloudy
Mostly cloudy
 Wind from WNW
Wind: WNW 14 mph , 22 km/h
Temperature: 15°C
Dew Point: 6°C
Humidity: 55%
Barometer: 1007 hPa
Clouds: Mostly cloudy
Visibility: 6 miles , 10 km
Cloud details: Mostly cloudy 1311 m
2022/05/24 16:20 EGBB 241620Z 30012KT 9999 BKN043 15/06 Q1007
 
EGXP - Scampton RAF, United Kingdom
Distance from station: NE 41mi, 66km
Updated: 24/05/2022 16:50
Mostly cloudy
Mostly cloudy
 Wind from WNW
Wind: WNW 18 mph , 30 km/h
Temperature: 16°C
Dew Point: 5°C
Humidity: 48%
Barometer: 1005 hPa
Clouds: Mostly cloudy
Visibility: 6 miles , 10 km
Cloud details: Mostly cloudy 2134 m
2022/05/24 15:50 EGXP 241550Z AUTO 29016KT 9999 // BKN070/// 16/05 Q1005
EGCN - Doncaster Sheffi, United Kingdom
Distance from station: N 46mi, 74km
Updated: 24/05/2022 17:20
Few Clouds
Few Clouds
 Wind from W
Wind: W 15 mph , 24 km/h
Temperature: 16°C
Dew Point: 4°C
Humidity: 45%
Barometer: 1007 hPa
Clouds: Few Clouds
Visibility: 6 miles , 10 km
Cloud details: Few Clouds 914 m
2022/05/24 16:20 EGCN 241620Z 28013KT 9999 FEW030TCU 16/04 Q1007
 
EGPB - Sumburgh, United Kingdom
Distance from station: N 491mi, 791km
Updated: 24/05/2022 17:20
Mostly cloudy
Mostly cloudy
 Wind from NW
Wind: NW 13 mph , 20 km/h
Temperature: 11°C
Dew Point: 6°C
Humidity: 72%
Barometer: 999 hPa
Clouds: Mostly cloudy
Visibility: 6 miles , 10 km
Cloud details: Mostly cloudy 732 m
2022/05/24 16:20 EGPB 241620Z 32011KT 9999 BKN024 11/06 Q0999
EGPO - Stornoway, United Kingdom
Distance from station: NW 561mi, 903km
Updated: 24/05/2022 17:20
Rain showers, Mostly cloudy
Rain showers, Mostly cloudy
 Wind from ESE
Wind: ESE 5 mph , 7 km/h
Temperature: 10°C
Wind Chill: 9°C
Dew Point: 8°C
Humidity: 88%
Barometer: 1001 hPa
Summary: Rain Showers
Clouds: Mostly cloudy
Visibility: 6 miles , 10 km
Cloud details: Few Clouds 549 m
Partly cloudy 762 m
Mostly cloudy 1250 m
2022/05/24 16:20 EGPO 241620Z 12004KT 9999 SHRA FEW018 SCT025TCU BKN041 10/08 Q1001